sensor_id;sensor_type;location;lat;lon;timestamp;temperature;humidity
11577;DHT22;5844;51.496;6.788;2023-06-22T00:00:53;21.30;1.00
11577;DHT22;5844;51.496;6.788;2023-06-22T00:03:20;21.40;1.00
11577;DHT22;5844;51.496;6.788;2023-06-22T00:05:46;20.70;1.00
11577;DHT22;5844;51.496;6.788;2023-06-22T00:08:12;21.30;1.00
11577;DHT22;5844;51.496;6.788;2023-06-22T00:10:38;21.30;1.00
11577;DHT22;5844;51.496;6.788;2023-06-22T00:13:05;21.30;1.00
11577;DHT22;5844;51.496;6.788;2023-06-22T00:15:31;21.30;1.00
11577;DHT22;5844;51.496;6.788;2023-06-22T00:17:57;21.20;1.00
11577;DHT22;5844;51.496;6.788;2023-06-22T00:20:24;21.20;1.00
11577;DHT22;5844;51.496;6.788;2023-06-22T00:22:58;21.20;1.00
11577;DHT22;5844;51.496;6.788;2023-06-22T00:25:24;21.10;1.00
11577;DHT22;5844;51.496;6.788;2023-06-22T00:27:49;21.10;1.00
11577;DHT22;5844;51.496;6.788;2023-06-22T00:30:16;21.10;1.00
11577;DHT22;5844;51.496;6.788;2023-06-22T00:32:44;21.00;1.00
11577;DHT22;5844;51.496;6.788;2023-06-22T00:35:09;21.00;1.00
11577;DHT22;5844;51.496;6.788;2023-06-22T00:37:36;21.00;1.00
11577;DHT22;5844;51.496;6.788;2023-06-22T00:40:02;21.00;1.00
11577;DHT22;5844;51.496;6.788;2023-06-22T00:42:29;21.00;1.00
11577;DHT22;5844;51.496;6.788;2023-06-22T00:44:55;20.90;1.00
11577;DHT22;5844;51.496;6.788;2023-06-22T00:47:21;20.90;1.00
11577;DHT22;5844;51.496;6.788;2023-06-22T00:49:48;20.80;1.00
11577;DHT22;5844;51.496;6.788;2023-06-22T00:52:17;20.80;1.00
11577;DHT22;5844;51.496;6.788;2023-06-22T00:54:47;20.70;1.00
11577;DHT22;5844;51.496;6.788;2023-06-22T00:57:14;20.70;1.00
11577;DHT22;5844;51.496;6.788;2023-06-22T00:59:47;20.70;1.00
11577;DHT22;5844;51.496;6.788;2023-06-22T01:02:14;20.70;1.00
11577;DHT22;5844;51.496;6.788;2023-06-22T01:04:40;20.60;1.00
11577;DHT22;5844;51.496;6.788;2023-06-22T01:07:20;20.60;1.00
11577;DHT22;5844;51.496;6.788;2023-06-22T01:10:10;20.60;1.00
11577;DHT22;5844;51.496;6.788;2023-06-22T01:12:42;20.60;1.00
11577;DHT22;5844;51.496;6.788;2023-06-22T01:15:27;20.50;1.00
11577;DHT22;5844;51.496;6.788;2023-06-22T01:17:56;20.50;1.00
11577;DHT22;5844;51.496;6.788;2023-06-22T01:20:23;20.50;1.00
11577;DHT22;5844;51.496;6.788;2023-06-22T01:23:11;20.40;1.00
11577;DHT22;5844;51.496;6.788;2023-06-22T01:28:48;20.40;1.00
11577;DHT22;5844;51.496;6.788;2023-06-22T01:31:17;20.40;1.00
11577;DHT22;5844;51.496;6.788;2023-06-22T01:33:45;20.40;1.00
11577;DHT22;5844;51.496;6.788;2023-06-22T01:36:13;20.40;1.00
11577;DHT22;5844;51.496;6.788;2023-06-22T01:38:39;20.40;1.00
11577;DHT22;5844;51.496;6.788;2023-06-22T01:41:05;20.30;1.00
11577;DHT22;5844;51.496;6.788;2023-06-22T01:43:32;20.30;1.00
11577;DHT22;5844;51.496;6.788;2023-06-22T01:46:01;20.30;1.00
11577;DHT22;5844;51.496;6.788;2023-06-22T01:48:27;20.30;1.00
11577;DHT22;5844;51.496;6.788;2023-06-22T01:50:54;20.30;1.00
11577;DHT22;5844;51.496;6.788;2023-06-22T01:53:21;20.30;1.00
11577;DHT22;5844;51.496;6.788;2023-06-22T01:55:47;20.30;1.00
11577;DHT22;5844;51.496;6.788;2023-06-22T01:58:13;20.30;1.00
11577;DHT22;5844;51.496;6.788;2023-06-22T02:00:41;20.30;1.00
11577;DHT22;5844;51.496;6.788;2023-06-22T02:03:17;20.40;1.00
11577;DHT22;5844;51.496;6.788;2023-06-22T02:05:56;20.40;1.00
11577;DHT22;5844;51.496;6.788;2023-06-22T02:08:28;20.50;1.00
11577;DHT22;5844;51.496;6.788;2023-06-22T02:10:55;20.50;1.00
11577;DHT22;5844;51.496;6.788;2023-06-22T02:13:24;20.50;1.00
11577;DHT22;5844;51.496;6.788;2023-06-22T02:15:50;20.50;1.00
11577;DHT22;5844;51.496;6.788;2023-06-22T02:18:16;20.50;1.00
11577;DHT22;5844;51.496;6.788;2023-06-22T02:20:42;20.60;1.00
11577;DHT22;5844;51.496;6.788;2023-06-22T02:23:08;20.60;1.00
11577;DHT22;5844;51.496;6.788;2023-06-22T02:25:34;20.60;1.00
11577;DHT22;5844;51.496;6.788;2023-06-22T02:28:01;20.50;1.00
11577;DHT22;5844;51.496;6.788;2023-06-22T02:30:26;20.50;1.00
11577;DHT22;5844;51.496;6.788;2023-06-22T02:32:52;20.50;1.00
11577;DHT22;5844;51.496;6.788;2023-06-22T02:35:33;20.50;1.00
11577;DHT22;5844;51.496;6.788;2023-06-22T02:38:01;20.40;1.00
11577;DHT22;5844;51.496;6.788;2023-06-22T02:40:28;20.30;1.00
11577;DHT22;5844;51.496;6.788;2023-06-22T02:42:55;20.30;1.00
11577;DHT22;5844;51.496;6.788;2023-06-22T02:45:21;20.20;1.00
11577;DHT22;5844;51.496;6.788;2023-06-22T02:47:46;20.20;1.00
11577;DHT22;5844;51.496;6.788;2023-06-22T02:50:13;20.20;1.00
11577;DHT22;5844;51.496;6.788;2023-06-22T02:52:39;20.10;1.00
11577;DHT22;5844;51.496;6.788;2023-06-22T02:55:05;20.10;1.00
11577;DHT22;5844;51.496;6.788;2023-06-22T02:57:32;20.10;1.00
11577;DHT22;5844;51.496;6.788;2023-06-22T02:59:58;20.10;1.00
11577;DHT22;5844;51.496;6.788;2023-06-22T03:02:24;20.00;1.00
11577;DHT22;5844;51.496;6.788;2023-06-22T03:04:51;20.00;1.00
11577;DHT22;5844;51.496;6.788;2023-06-22T03:07:19;20.00;1.00
11577;DHT22;5844;51.496;6.788;2023-06-22T03:09:45;19.90;1.00
11577;DHT22;5844;51.496;6.788;2023-06-22T03:12:11;19.90;1.00
11577;DHT22;5844;51.496;6.788;2023-06-22T03:14:36;19.90;1.00
11577;DHT22;5844;51.496;6.788;2023-06-22T03:17:03;19.80;1.00
11577;DHT22;5844;51.496;6.788;2023-06-22T03:19:29;19.80;1.00
11577;DHT22;5844;51.496;6.788;2023-06-22T03:21:57;19.80;1.00
11577;DHT22;5844;51.496;6.788;2023-06-22T03:24:23;19.80;1.00
11577;DHT22;5844;51.496;6.788;2023-06-22T03:26:48;19.80;1.00
11577;DHT22;5844;51.496;6.788;2023-06-22T03:29:14;19.80;1.00
11577;DHT22;5844;51.496;6.788;2023-06-22T03:31:41;19.80;1.00
11577;DHT22;5844;51.496;6.788;2023-06-22T03:34:06;19.70;1.00
11577;DHT22;5844;51.496;6.788;2023-06-22T03:36:32;19.70;1.00
11577;DHT22;5844;51.496;6.788;2023-06-22T03:38:58;19.70;1.00
11577;DHT22;5844;51.496;6.788;2023-06-22T03:41:24;19.60;1.00
11577;DHT22;5844;51.496;6.788;2023-06-22T03:43:50;19.60;1.00
11577;DHT22;5844;51.496;6.788;2023-06-22T03:46:16;19.60;1.00
11577;DHT22;5844;51.496;6.788;2023-06-22T03:48:42;19.60;1.00
11577;DHT22;5844;51.496;6.788;2023-06-22T03:51:08;19.60;1.00
11577;DHT22;5844;51.496;6.788;2023-06-22T03:53:33;19.60;1.00
11577;DHT22;5844;51.496;6.788;2023-06-22T03:55:59;19.60;1.00
11577;DHT22;5844;51.496;6.788;2023-06-22T03:58:25;19.70;1.00
11577;DHT22;5844;51.496;6.788;2023-06-22T04:00:51;19.80;1.00
11577;DHT22;5844;51.496;6.788;2023-06-22T04:03:18;19.80;1.00
11577;DHT22;5844;51.496;6.788;2023-06-22T04:05:46;19.80;1.00
11577;DHT22;5844;51.496;6.788;2023-06-22T04:08:13;19.80;1.00
11577;DHT22;5844;51.496;6.788;2023-06-22T04:10:39;19.80;1.00
11577;DHT22;5844;51.496;6.788;2023-06-22T04:13:05;19.90;1.00
11577;DHT22;5844;51.496;6.788;2023-06-22T04:15:31;20.00;1.00
11577;DHT22;5844;51.496;6.788;2023-06-22T04:17:56;20.10;1.00
11577;DHT22;5844;51.496;6.788;2023-06-22T04:20:23;20.20;1.00
11577;DHT22;5844;51.496;6.788;2023-06-22T04:22:54;20.40;1.00
11577;DHT22;5844;51.496;6.788;2023-06-22T04:25:19;20.50;1.00
11577;DHT22;5844;51.496;6.788;2023-06-22T04:27:45;20.60;1.00
11577;DHT22;5844;51.496;6.788;2023-06-22T04:30:11;20.70;1.00
11577;DHT22;5844;51.496;6.788;2023-06-22T04:32:40;20.80;1.00
11577;DHT22;5844;51.496;6.788;2023-06-22T04:35:06;20.80;1.00
11577;DHT22;5844;51.496;6.788;2023-06-22T04:37:32;20.90;1.00
11577;DHT22;5844;51.496;6.788;2023-06-22T04:39:58;21.00;1.00
11577;DHT22;5844;51.496;6.788;2023-06-22T04:42:27;21.00;1.00
11577;DHT22;5844;51.496;6.788;2023-06-22T04:44:53;20.90;1.00
11577;DHT22;5844;51.496;6.788;2023-06-22T04:47:19;20.90;1.00
11577;DHT22;5844;51.496;6.788;2023-06-22T04:49:44;20.90;1.00
11577;DHT22;5844;51.496;6.788;2023-06-22T04:52:11;20.90;1.00
11577;DHT22;5844;51.496;6.788;2023-06-22T04:54:39;20.90;1.00
11577;DHT22;5844;51.496;6.788;2023-06-22T04:57:07;20.90;1.00
11577;DHT22;5844;51.496;6.788;2023-06-22T04:59:37;20.90;1.00
11577;DHT22;5844;51.496;6.788;2023-06-22T05:02:04;20.90;1.00
11577;DHT22;5844;51.496;6.788;2023-06-22T05:04:31;20.90;1.00
11577;DHT22;5844;51.496;6.788;2023-06-22T05:06:59;20.80;1.00
11577;DHT22;5844;51.496;6.788;2023-06-22T05:09:25;20.90;1.00
11577;DHT22;5844;51.496;6.788;2023-06-22T05:11:51;20.90;1.00
11577;DHT22;5844;51.496;6.788;2023-06-22T05:14:17;20.90;1.00
11577;DHT22;5844;51.496;6.788;2023-06-22T05:16:44;20.90;1.00
11577;DHT22;5844;51.496;6.788;2023-06-22T05:19:10;20.90;1.00
11577;DHT22;5844;51.496;6.788;2023-06-22T05:21:35;20.90;1.00
11577;DHT22;5844;51.496;6.788;2023-06-22T05:24:01;20.90;1.00
11577;DHT22;5844;51.496;6.788;2023-06-22T05:26:29;20.90;1.00
11577;DHT22;5844;51.496;6.788;2023-06-22T05:28:55;21.00;1.00
11577;DHT22;5844;51.496;6.788;2023-06-22T05:31:21;21.00;1.00
11577;DHT22;5844;51.496;6.788;2023-06-22T05:33:48;21.00;1.00
11577;DHT22;5844;51.496;6.788;2023-06-22T05:36:15;21.10;1.00
11577;DHT22;5844;51.496;6.788;2023-06-22T05:38:41;21.10;1.00
11577;DHT22;5844;51.496;6.788;2023-06-22T05:41:07;21.10;1.00
11577;DHT22;5844;51.496;6.788;2023-06-22T05:43:33;21.10;1.00
11577;DHT22;5844;51.496;6.788;2023-06-22T05:46:00;21.10;1.00
11577;DHT22;5844;51.496;6.788;2023-06-22T05:48:26;21.10;1.00
11577;DHT22;5844;51.496;6.788;2023-06-22T05:50:52;21.20;1.00
11577;DHT22;5844;51.496;6.788;2023-06-22T05:53:18;21.20;1.00
11577;DHT22;5844;51.496;6.788;2023-06-22T05:55:44;21.20;1.00
11577;DHT22;5844;51.496;6.788;2023-06-22T05:58:10;21.30;1.00
11577;DHT22;5844;51.496;6.788;2023-06-22T06:00:35;21.20;1.00
11577;DHT22;5844;51.496;6.788;2023-06-22T06:03:01;21.30;1.00
11577;DHT22;5844;51.496;6.788;2023-06-22T06:05:31;21.20;1.00
11577;DHT22;5844;51.496;6.788;2023-06-22T06:07:58;21.00;1.00
11577;DHT22;5844;51.496;6.788;2023-06-22T06:10:23;20.90;1.00
11577;DHT22;5844;51.496;6.788;2023-06-22T06:12:49;20.80;1.00
11577;DHT22;5844;51.496;6.788;2023-06-22T06:15:15;20.70;1.00
11577;DHT22;5844;51.496;6.788;2023-06-22T06:17:48;20.50;1.00
11577;DHT22;5844;51.496;6.788;2023-06-22T06:20:14;21.10;1.00
11577;DHT22;5844;51.496;6.788;2023-06-22T06:22:40;20.20;1.00
11577;DHT22;5844;51.496;6.788;2023-06-22T06:25:06;20.10;1.00
11577;DHT22;5844;51.496;6.788;2023-06-22T06:27:31;20.00;1.00
11577;DHT22;5844;51.496;6.788;2023-06-22T06:29:57;19.90;1.00
11577;DHT22;5844;51.496;6.788;2023-06-22T06:32:22;19.80;1.00
11577;DHT22;5844;51.496;6.788;2023-06-22T06:34:48;19.80;1.00
11577;DHT22;5844;51.496;6.788;2023-06-22T06:37:14;19.70;1.00
11577;DHT22;5844;51.496;6.788;2023-06-22T06:39:40;19.60;1.00
11577;DHT22;5844;51.496;6.788;2023-06-22T06:42:06;19.60;1.00
11577;DHT22;5844;51.496;6.788;2023-06-22T06:44:32;19.50;1.00
11577;DHT22;5844;51.496;6.788;2023-06-22T06:46:57;19.50;1.00
11577;DHT22;5844;51.496;6.788;2023-06-22T06:49:23;19.40;1.00
11577;DHT22;5844;51.496;6.788;2023-06-22T06:51:49;19.40;1.00
11577;DHT22;5844;51.496;6.788;2023-06-22T06:54:15;19.50;1.00
11577;DHT22;5844;51.496;6.788;2023-06-22T06:56:41;19.40;1.00
11577;DHT22;5844;51.496;6.788;2023-06-22T06:59:10;19.50;1.00
11577;DHT22;5844;51.496;6.788;2023-06-22T07:01:35;19.50;1.00
11577;DHT22;5844;51.496;6.788;2023-06-22T07:04:01;19.50;1.00
11577;DHT22;5844;51.496;6.788;2023-06-22T07:06:27;19.50;1.00
11577;DHT22;5844;51.496;6.788;2023-06-22T07:08:55;19.60;1.00
11577;DHT22;5844;51.496;6.788;2023-06-22T07:11:21;19.70;1.00
11577;DHT22;5844;51.496;6.788;2023-06-22T07:13:46;19.70;1.00
11577;DHT22;5844;51.496;6.788;2023-06-22T07:16:12;19.70;1.00
11577;DHT22;5844;51.496;6.788;2023-06-22T07:18:39;19.80;1.00
11577;DHT22;5844;51.496;6.788;2023-06-22T07:21:05;19.80;1.00
11577;DHT22;5844;51.496;6.788;2023-06-22T07:23:32;19.90;1.00
11577;DHT22;5844;51.496;6.788;2023-06-22T07:25:58;20.00;1.00
11577;DHT22;5844;51.496;6.788;2023-06-22T07:28:28;19.90;1.00
11577;DHT22;5844;51.496;6.788;2023-06-22T07:30:57;19.90;1.00
11577;DHT22;5844;51.496;6.788;2023-06-22T07:33:22;20.00;1.00
11577;DHT22;5844;51.496;6.788;2023-06-22T07:35:48;20.10;1.00
11577;DHT22;5844;51.496;6.788;2023-06-22T07:38:14;20.20;1.00
11577;DHT22;5844;51.496;6.788;2023-06-22T07:40:41;20.30;1.00
11577;DHT22;5844;51.496;6.788;2023-06-22T07:43:07;20.30;1.00
11577;DHT22;5844;51.496;6.788;2023-06-22T07:45:33;20.50;1.00
11577;DHT22;5844;51.496;6.788;2023-06-22T07:48:00;20.60;1.00
11577;DHT22;5844;51.496;6.788;2023-06-22T07:50:26;20.60;1.00
11577;DHT22;5844;51.496;6.788;2023-06-22T07:52:51;20.70;1.00
11577;DHT22;5844;51.496;6.788;2023-06-22T07:55:18;20.70;1.00
11577;DHT22;5844;51.496;6.788;2023-06-22T07:57:46;20.70;1.00
11577;DHT22;5844;51.496;6.788;2023-06-22T08:00:12;20.70;1.00
11577;DHT22;5844;51.496;6.788;2023-06-22T08:02:41;20.70;1.00
11577;DHT22;5844;51.496;6.788;2023-06-22T08:05:08;20.70;1.00
11577;DHT22;5844;51.496;6.788;2023-06-22T08:07:35;20.70;1.00
11577;DHT22;5844;51.496;6.788;2023-06-22T08:10:03;20.70;1.00
11577;DHT22;5844;51.496;6.788;2023-06-22T08:12:29;20.70;1.00
11577;DHT22;5844;51.496;6.788;2023-06-22T08:14:54;20.80;1.00
11577;DHT22;5844;51.496;6.788;2023-06-22T08:17:20;20.80;1.00
11577;DHT22;5844;51.496;6.788;2023-06-22T08:19:45;20.90;1.00
11577;DHT22;5844;51.496;6.788;2023-06-22T08:22:11;21.10;1.00
11577;DHT22;5844;51.496;6.788;2023-06-22T08:24:36;21.20;1.00
11577;DHT22;5844;51.496;6.788;2023-06-22T08:27:02;21.40;1.00
11577;DHT22;5844;51.496;6.788;2023-06-22T08:29:28;21.60;1.00
11577;DHT22;5844;51.496;6.788;2023-06-22T08:31:53;21.80;1.00
11577;DHT22;5844;51.496;6.788;2023-06-22T08:34:19;22.00;1.00
11577;DHT22;5844;51.496;6.788;2023-06-22T08:36:48;22.10;1.00
11577;DHT22;5844;51.496;6.788;2023-06-22T08:39:17;22.10;1.00
11577;DHT22;5844;51.496;6.788;2023-06-22T08:41:43;22.30;1.00
11577;DHT22;5844;51.496;6.788;2023-06-22T08:44:08;22.30;1.00
11577;DHT22;5844;51.496;6.788;2023-06-22T08:46:34;22.30;1.00
11577;DHT22;5844;51.496;6.788;2023-06-22T08:49:00;22.30;1.00
11577;DHT22;5844;51.496;6.788;2023-06-22T08:51:26;22.30;1.00
11577;DHT22;5844;51.496;6.788;2023-06-22T08:53:52;22.30;1.00
11577;DHT22;5844;51.496;6.788;2023-06-22T08:56:17;22.20;1.00
11577;DHT22;5844;51.496;6.788;2023-06-22T08:58:43;22.20;1.00
11577;DHT22;5844;51.496;6.788;2023-06-22T09:01:09;22.10;1.00
11577;DHT22;5844;51.496;6.788;2023-06-22T09:03:35;22.20;1.00
11577;DHT22;5844;51.496;6.788;2023-06-22T09:06:02;22.30;1.00
11577;DHT22;5844;51.496;6.788;2023-06-22T09:08:27;22.50;1.00
11577;DHT22;5844;51.496;6.788;2023-06-22T09:10:53;22.70;1.00
11577;DHT22;5844;51.496;6.788;2023-06-22T09:13:19;22.80;1.00
11577;DHT22;5844;51.496;6.788;2023-06-22T09:15:44;22.90;1.00
11577;DHT22;5844;51.496;6.788;2023-06-22T09:18:11;22.90;1.00
11577;DHT22;5844;51.496;6.788;2023-06-22T09:20:37;23.00;1.00
11577;DHT22;5844;51.496;6.788;2023-06-22T09:23:02;23.10;1.00
11577;DHT22;5844;51.496;6.788;2023-06-22T09:25:28;23.10;1.00
11577;DHT22;5844;51.496;6.788;2023-06-22T09:27:54;23.20;1.00
11577;DHT22;5844;51.496;6.788;2023-06-22T09:30:19;23.20;1.00
11577;DHT22;5844;51.496;6.788;2023-06-22T09:32:45;23.20;1.00
11577;DHT22;5844;51.496;6.788;2023-06-22T09:35:11;23.20;1.00
11577;DHT22;5844;51.496;6.788;2023-06-22T09:37:39;23.20;1.00
11577;DHT22;5844;51.496;6.788;2023-06-22T09:40:07;23.20;1.00
11577;DHT22;5844;51.496;6.788;2023-06-22T09:42:35;23.30;1.00
11577;DHT22;5844;51.496;6.788;2023-06-22T09:45:01;23.40;1.00
11577;DHT22;5844;51.496;6.788;2023-06-22T09:47:27;23.60;1.00
11577;DHT22;5844;51.496;6.788;2023-06-22T09:49:53;23.60;1.00
11577;DHT22;5844;51.496;6.788;2023-06-22T09:52:21;23.80;1.00
11577;DHT22;5844;51.496;6.788;2023-06-22T09:54:46;24.00;1.00
11577;DHT22;5844;51.496;6.788;2023-06-22T09:57:12;24.20;1.00
11577;DHT22;5844;51.496;6.788;2023-06-22T09:59:38;24.40;1.00
11577;DHT22;5844;51.496;6.788;2023-06-22T10:02:06;24.90;1.00
11577;DHT22;5844;51.496;6.788;2023-06-22T10:04:32;25.40;1.00
11577;DHT22;5844;51.496;6.788;2023-06-22T10:06:58;25.90;1.00
11577;DHT22;5844;51.496;6.788;2023-06-22T10:09:24;26.30;1.00
11577;DHT22;5844;51.496;6.788;2023-06-22T10:11:49;26.80;1.00
11577;DHT22;5844;51.496;6.788;2023-06-22T10:14:15;27.50;1.00
11577;DHT22;5844;51.496;6.788;2023-06-22T10:16:40;28.00;1.00
11577;DHT22;5844;51.496;6.788;2023-06-22T10:19:06;28.60;1.00
11577;DHT22;5844;51.496;6.788;2023-06-22T10:21:32;29.10;1.00
11577;DHT22;5844;51.496;6.788;2023-06-22T10:23:58;29.30;1.00
11577;DHT22;5844;51.496;6.788;2023-06-22T10:26:27;29.40;1.00
11577;DHT22;5844;51.496;6.788;2023-06-22T10:28:54;29.30;1.00
11577;DHT22;5844;51.496;6.788;2023-06-22T10:31:20;29.30;1.00
11577;DHT22;5844;51.496;6.788;2023-06-22T10:33:45;29.50;1.00
11577;DHT22;5844;51.496;6.788;2023-06-22T10:36:11;29.70;1.00
11577;DHT22;5844;51.496;6.788;2023-06-22T10:38:37;29.70;1.00
11577;DHT22;5844;51.496;6.788;2023-06-22T10:41:02;29.40;1.00
11577;DHT22;5844;51.496;6.788;2023-06-22T10:43:28;29.10;1.00
11577;DHT22;5844;51.496;6.788;2023-06-22T10:45:53;28.90;1.00
11577;DHT22;5844;51.496;6.788;2023-06-22T10:48:19;28.70;1.00
11577;DHT22;5844;51.496;6.788;2023-06-22T10:50:46;28.50;1.00
11577;DHT22;5844;51.496;6.788;2023-06-22T10:53:11;28.20;1.00
11577;DHT22;5844;51.496;6.788;2023-06-22T10:55:37;27.90;1.00
11577;DHT22;5844;51.496;6.788;2023-06-22T10:58:02;27.60;1.00
11577;DHT22;5844;51.496;6.788;2023-06-22T11:00:28;27.30;1.00
11577;DHT22;5844;51.496;6.788;2023-06-22T11:02:54;27.00;1.00
11577;DHT22;5844;51.496;6.788;2023-06-22T11:05:19;26.80;1.00
11577;DHT22;5844;51.496;6.788;2023-06-22T11:07:45;26.50;1.00
11577;DHT22;5844;51.496;6.788;2023-06-22T11:10:12;26.30;1.00
11577;DHT22;5844;51.496;6.788;2023-06-22T11:12:38;26.00;1.00
11577;DHT22;5844;51.496;6.788;2023-06-22T11:15:04;25.70;1.00
11577;DHT22;5844;51.496;6.788;2023-06-22T11:17:29;25.50;1.00
11577;DHT22;5844;51.496;6.788;2023-06-22T11:19:55;25.50;1.00
11577;DHT22;5844;51.496;6.788;2023-06-22T11:22:20;25.40;1.00
11577;DHT22;5844;51.496;6.788;2023-06-22T11:24:46;25.40;1.00
11577;DHT22;5844;51.496;6.788;2023-06-22T11:27:12;25.20;1.00
11577;DHT22;5844;51.496;6.788;2023-06-22T11:29:37;25.10;1.00
11577;DHT22;5844;51.496;6.788;2023-06-22T11:32:06;24.90;1.00
11577;DHT22;5844;51.496;6.788;2023-06-22T11:34:32;24.70;1.00
11577;DHT22;5844;51.496;6.788;2023-06-22T11:36:58;24.60;1.00
11577;DHT22;5844;51.496;6.788;2023-06-22T11:39:23;24.50;1.00
11577;DHT22;5844;51.496;6.788;2023-06-22T11:41:49;24.20;1.00
11577;DHT22;5844;51.496;6.788;2023-06-22T11:44:14;24.00;1.00
11577;DHT22;5844;51.496;6.788;2023-06-22T11:46:40;23.60;1.00
11577;DHT22;5844;51.496;6.788;2023-06-22T11:49:06;23.40;1.00
11577;DHT22;5844;51.496;6.788;2023-06-22T11:51:31;23.20;1.00
11577;DHT22;5844;51.496;6.788;2023-06-22T11:53:57;22.80;1.00
11577;DHT22;5844;51.496;6.788;2023-06-22T11:56:23;22.50;1.00
11577;DHT22;5844;51.496;6.788;2023-06-22T11:58:49;22.30;1.00
11577;DHT22;5844;51.496;6.788;2023-06-22T12:01:14;22.20;1.00
11577;DHT22;5844;51.496;6.788;2023-06-22T12:03:41;22.10;1.00
11577;DHT22;5844;51.496;6.788;2023-06-22T12:06:08;22.10;1.00
11577;DHT22;5844;51.496;6.788;2023-06-22T12:08:35;22.00;1.00
11577;DHT22;5844;51.496;6.788;2023-06-22T12:11:00;22.00;1.00
11577;DHT22;5844;51.496;6.788;2023-06-22T12:13:26;22.00;1.00
11577;DHT22;5844;51.496;6.788;2023-06-22T12:15:52;22.00;1.00
11577;DHT22;5844;51.496;6.788;2023-06-22T12:18:18;21.90;1.00
11577;DHT22;5844;51.496;6.788;2023-06-22T12:20:46;21.90;1.00
11577;DHT22;5844;51.496;6.788;2023-06-22T12:23:11;21.80;1.00
11577;DHT22;5844;51.496;6.788;2023-06-22T12:25:37;21.90;1.00
11577;DHT22;5844;51.496;6.788;2023-06-22T12:28:03;22.00;1.00
11577;DHT22;5844;51.496;6.788;2023-06-22T12:30:30;22.20;1.00
11577;DHT22;5844;51.496;6.788;2023-06-22T12:32:55;22.40;1.00
11577;DHT22;5844;51.496;6.788;2023-06-22T12:35:21;22.80;1.00
11577;DHT22;5844;51.496;6.788;2023-06-22T12:37:47;23.50;1.00
11577;DHT22;5844;51.496;6.788;2023-06-22T12:40:12;24.30;1.00
11577;DHT22;5844;51.496;6.788;2023-06-22T12:42:38;24.90;1.00
11577;DHT22;5844;51.496;6.788;2023-06-22T12:45:04;25.00;1.00
11577;DHT22;5844;51.496;6.788;2023-06-22T12:47:30;24.90;1.00
11577;DHT22;5844;51.496;6.788;2023-06-22T12:49:56;24.80;1.00
11577;DHT22;5844;51.496;6.788;2023-06-22T12:52:22;24.60;1.00
11577;DHT22;5844;51.496;6.788;2023-06-22T12:54:48;24.60;1.00
11577;DHT22;5844;51.496;6.788;2023-06-22T12:57:14;24.50;1.00
11577;DHT22;5844;51.496;6.788;2023-06-22T12:59:39;24.40;1.00
11577;DHT22;5844;51.496;6.788;2023-06-22T13:02:05;24.40;1.00
11577;DHT22;5844;51.496;6.788;2023-06-22T13:04:31;24.40;1.00
11577;DHT22;5844;51.496;6.788;2023-06-22T13:06:56;24.40;1.00
11577;DHT22;5844;51.496;6.788;2023-06-22T13:09:22;24.40;1.00
11577;DHT22;5844;51.496;6.788;2023-06-22T13:11:48;24.50;1.00
11577;DHT22;5844;51.496;6.788;2023-06-22T13:14:13;24.50;1.00
11577;DHT22;5844;51.496;6.788;2023-06-22T13:16:41;24.50;1.00
11577;DHT22;5844;51.496;6.788;2023-06-22T13:19:07;24.40;1.00
11577;DHT22;5844;51.496;6.788;2023-06-22T13:21:32;24.20;1.00
11577;DHT22;5844;51.496;6.788;2023-06-22T13:23:59;24.10;1.00
11577;DHT22;5844;51.496;6.788;2023-06-22T13:26:25;23.90;1.00
11577;DHT22;5844;51.496;6.788;2023-06-22T13:28:51;23.80;1.00
11577;DHT22;5844;51.496;6.788;2023-06-22T13:31:16;23.80;1.00
11577;DHT22;5844;51.496;6.788;2023-06-22T13:33:42;23.60;1.00
11577;DHT22;5844;51.496;6.788;2023-06-22T13:36:09;23.50;1.00
11577;DHT22;5844;51.496;6.788;2023-06-22T13:38:35;23.30;1.00
11577;DHT22;5844;51.496;6.788;2023-06-22T13:41:04;23.40;1.00
11577;DHT22;5844;51.496;6.788;2023-06-22T13:43:30;23.40;1.00
11577;DHT22;5844;51.496;6.788;2023-06-22T13:45:55;23.40;1.00
11577;DHT22;5844;51.496;6.788;2023-06-22T13:48:22;23.40;1.00
11577;DHT22;5844;51.496;6.788;2023-06-22T13:50:48;23.50;1.00
11577;DHT22;5844;51.496;6.788;2023-06-22T13:53:14;23.70;1.00
11577;DHT22;5844;51.496;6.788;2023-06-22T13:55:40;23.90;1.00
11577;DHT22;5844;51.496;6.788;2023-06-22T13:58:06;24.20;1.00
11577;DHT22;5844;51.496;6.788;2023-06-22T14:00:32;24.40;1.00
11577;DHT22;5844;51.496;6.788;2023-06-22T14:02:57;24.50;1.00
11577;DHT22;5844;51.496;6.788;2023-06-22T14:05:23;24.60;1.00
11577;DHT22;5844;51.496;6.788;2023-06-22T14:07:49;24.80;1.00
11577;DHT22;5844;51.496;6.788;2023-06-22T14:10:14;25.00;1.00
11577;DHT22;5844;51.496;6.788;2023-06-22T14:12:40;25.40;1.00
11577;DHT22;5844;51.496;6.788;2023-06-22T14:15:06;26.20;1.00
11577;DHT22;5844;51.496;6.788;2023-06-22T14:17:31;26.80;1.00
11577;DHT22;5844;51.496;6.788;2023-06-22T14:19:57;26.50;1.00
11577;DHT22;5844;51.496;6.788;2023-06-22T14:22:23;26.00;1.00
11577;DHT22;5844;51.496;6.788;2023-06-22T14:24:49;25.60;1.00
11577;DHT22;5844;51.496;6.788;2023-06-22T14:27:15;25.40;1.00
11577;DHT22;5844;51.496;6.788;2023-06-22T14:29:42;25.20;1.00
11577;DHT22;5844;51.496;6.788;2023-06-22T14:32:08;24.90;1.00
11577;DHT22;5844;51.496;6.788;2023-06-22T14:34:34;24.80;1.00
11577;DHT22;5844;51.496;6.788;2023-06-22T14:37:02;24.60;1.00
11577;DHT22;5844;51.496;6.788;2023-06-22T14:39:28;24.60;1.00
11577;DHT22;5844;51.496;6.788;2023-06-22T14:41:53;24.50;1.00
11577;DHT22;5844;51.496;6.788;2023-06-22T14:44:19;24.40;1.00
11577;DHT22;5844;51.496;6.788;2023-06-22T14:46:45;24.30;1.00
11577;DHT22;5844;51.496;6.788;2023-06-22T14:49:10;24.30;1.00
11577;DHT22;5844;51.496;6.788;2023-06-22T14:51:36;24.20;1.00
11577;DHT22;5844;51.496;6.788;2023-06-22T14:54:02;24.20;1.00
11577;DHT22;5844;51.496;6.788;2023-06-22T14:56:27;24.20;1.00
11577;DHT22;5844;51.496;6.788;2023-06-22T14:58:53;24.10;1.00
11577;DHT22;5844;51.496;6.788;2023-06-22T15:01:18;23.90;1.00
11577;DHT22;5844;51.496;6.788;2023-06-22T15:03:44;23.80;1.00
11577;DHT22;5844;51.496;6.788;2023-06-22T15:06:11;23.70;1.00
11577;DHT22;5844;51.496;6.788;2023-06-22T15:08:40;23.50;1.00
11577;DHT22;5844;51.496;6.788;2023-06-22T15:11:06;23.50;1.00
11577;DHT22;5844;51.496;6.788;2023-06-22T15:13:33;23.40;1.00
11577;DHT22;5844;51.496;6.788;2023-06-22T15:16:02;23.40;1.00
11577;DHT22;5844;51.496;6.788;2023-06-22T15:18:29;23.30;1.00
11577;DHT22;5844;51.496;6.788;2023-06-22T15:20:54;23.10;1.00
11577;DHT22;5844;51.496;6.788;2023-06-22T15:23:20;23.00;1.00
11577;DHT22;5844;51.496;6.788;2023-06-22T15:25:46;22.90;1.00
11577;DHT22;5844;51.496;6.788;2023-06-22T15:28:12;22.80;1.00
11577;DHT22;5844;51.496;6.788;2023-06-22T15:30:38;22.80;1.00
11577;DHT22;5844;51.496;6.788;2023-06-22T15:33:04;22.70;1.00
11577;DHT22;5844;51.496;6.788;2023-06-22T15:35:30;22.70;1.00
11577;DHT22;5844;51.496;6.788;2023-06-22T15:37:55;22.60;1.00
11577;DHT22;5844;51.496;6.788;2023-06-22T15:40:21;22.50;1.00
11577;DHT22;5844;51.496;6.788;2023-06-22T15:42:50;22.40;1.00
11577;DHT22;5844;51.496;6.788;2023-06-22T15:45:15;22.50;1.00
11577;DHT22;5844;51.496;6.788;2023-06-22T15:47:41;22.50;1.00
11577;DHT22;5844;51.496;6.788;2023-06-22T15:50:07;22.50;1.00
11577;DHT22;5844;51.496;6.788;2023-06-22T15:52:33;22.40;1.00
11577;DHT22;5844;51.496;6.788;2023-06-22T15:54:58;22.30;1.00
11577;DHT22;5844;51.496;6.788;2023-06-22T15:57:26;22.20;1.00
11577;DHT22;5844;51.496;6.788;2023-06-22T15:59:52;22.20;1.00